sensor_id;sensor_type;location;lat;lon;timestamp;temperature;humidity
4207;DHT22;2117;47.972;7.830;2023-08-21T01:00:38;23.00;99.90
4207;DHT22;2117;47.972;7.830;2023-08-21T01:03:04;23.00;99.90
4207;DHT22;2117;47.972;7.830;2023-08-21T01:05:30;23.00;99.90
4207;DHT22;2117;47.972;7.830;2023-08-21T01:08:14;23.00;99.90
4207;DHT22;2117;47.972;7.830;2023-08-21T01:10:54;23.00;99.90
4207;DHT22;2117;47.972;7.830;2023-08-21T01:13:59;23.00;99.90
4207;DHT22;2117;47.972;7.830;2023-08-21T01:16:27;23.00;99.90
4207;DHT22;2117;47.972;7.830;2023-08-21T01:21:22;22.90;99.90
4207;DHT22;2117;47.972;7.830;2023-08-21T01:23:48;22.90;99.90
4207;DHT22;2117;47.972;7.830;2023-08-21T01:26:14;22.90;99.90
4207;DHT22;2117;47.972;7.830;2023-08-21T01:28:40;22.90;99.90
4207;DHT22;2117;47.972;7.830;2023-08-21T01:31:30;22.90;99.90
4207;DHT22;2117;47.972;7.830;2023-08-21T01:34:02;22.90;99.90
4207;DHT22;2117;47.972;7.830;2023-08-21T01:36:29;22.80;99.90
4207;DHT22;2117;47.972;7.830;2023-08-21T01:38:56;22.80;99.90
4207;DHT22;2117;47.972;7.830;2023-08-21T01:41:25;22.80;99.90
4207;DHT22;2117;47.972;7.830;2023-08-21T01:43:51;22.90;99.90
4207;DHT22;2117;47.972;7.830;2023-08-21T01:46:16;22.80;99.90
4207;DHT22;2117;47.972;7.830;2023-08-21T01:48:42;22.80;99.90
4207;DHT22;2117;47.972;7.830;2023-08-21T01:51:07;22.80;99.90
4207;DHT22;2117;47.972;7.830;2023-08-21T01:53:33;22.80;99.90
4207;DHT22;2117;47.972;7.830;2023-08-21T01:55:59;22.80;99.90
4207;DHT22;2117;47.972;7.830;2023-08-21T02:00:50;22.80;99.90
4207;DHT22;2117;47.972;7.830;2023-08-21T02:03:16;22.70;99.90
4207;DHT22;2117;47.972;7.830;2023-08-21T02:05:41;22.70;99.90
4207;DHT22;2117;47.972;7.830;2023-08-21T02:08:12;22.70;99.90
4207;DHT22;2117;47.972;7.830;2023-08-21T02:10:37;22.60;99.90
4207;DHT22;2117;47.972;7.830;2023-08-21T02:13:03;22.60;99.90
4207;DHT22;2117;47.972;7.830;2023-08-21T02:15:29;22.50;99.90
4207;DHT22;2117;47.972;7.830;2023-08-21T02:17:54;22.50;99.90
4207;DHT22;2117;47.972;7.830;2023-08-21T02:20:20;22.50;99.90
4207;DHT22;2117;47.972;7.830;2023-08-21T02:22:46;22.60;99.90
4207;DHT22;2117;47.972;7.830;2023-08-21T02:25:11;22.50;99.90
4207;DHT22;2117;47.972;7.830;2023-08-21T02:27:37;22.40;99.90
4207;DHT22;2117;47.972;7.830;2023-08-21T02:30:02;22.40;99.90
4207;DHT22;2117;47.972;7.830;2023-08-21T02:32:28;22.40;99.90
4207;DHT22;2117;47.972;7.830;2023-08-21T02:34:54;22.40;99.90
4207;DHT22;2117;47.972;7.830;2023-08-21T02:37:19;22.30;99.90
4207;DHT22;2117;47.972;7.830;2023-08-21T02:39:45;22.30;99.90
4207;DHT22;2117;47.972;7.830;2023-08-21T02:42:11;22.30;99.90
4207;DHT22;2117;47.972;7.830;2023-08-21T02:44:36;22.30;99.90
4207;DHT22;2117;47.972;7.830;2023-08-21T02:49:28;22.30;99.90
4207;DHT22;2117;47.972;7.830;2023-08-21T02:51:53;22.30;99.90
4207;DHT22;2117;47.972;7.830;2023-08-21T02:54:19;22.30;99.90
4207;DHT22;2117;47.972;7.830;2023-08-21T02:56:44;22.30;99.90
4207;DHT22;2117;47.972;7.830;2023-08-21T02:59:10;22.30;99.90
4207;DHT22;2117;47.972;7.830;2023-08-21T03:04:01;22.20;99.90
4207;DHT22;2117;47.972;7.830;2023-08-21T03:06:27;22.10;99.90
4207;DHT22;2117;47.972;7.830;2023-08-21T03:08:53;22.00;99.90
4207;DHT22;2117;47.972;7.830;2023-08-21T03:11:18;22.20;99.90
4207;DHT22;2117;47.972;7.830;2023-08-21T03:13:44;22.10;99.90
4207;DHT22;2117;47.972;7.830;2023-08-21T03:16:09;22.10;99.90
4207;DHT22;2117;47.972;7.830;2023-08-21T03:18:54;22.00;99.90
4207;DHT22;2117;47.972;7.830;2023-08-21T03:23:45;22.00;99.90
4207;DHT22;2117;47.972;7.830;2023-08-21T03:26:11;22.00;99.90
4207;DHT22;2117;47.972;7.830;2023-08-21T03:28:36;21.90;99.90
4207;DHT22;2117;47.972;7.830;2023-08-21T03:31:02;21.90;99.90
4207;DHT22;2117;47.972;7.830;2023-08-21T03:33:27;21.90;99.90
4207;DHT22;2117;47.972;7.830;2023-08-21T03:35:54;21.90;99.90
4207;DHT22;2117;47.972;7.830;2023-08-21T03:38:20;21.90;99.90
4207;DHT22;2117;47.972;7.830;2023-08-21T03:40:45;21.90;99.90
4207;DHT22;2117;47.972;7.830;2023-08-21T03:43:11;21.90;99.90
4207;DHT22;2117;47.972;7.830;2023-08-21T03:45:37;21.80;99.90
4207;DHT22;2117;47.972;7.830;2023-08-21T03:48:03;21.80;99.90
4207;DHT22;2117;47.972;7.830;2023-08-21T03:50:28;21.80;99.90
4207;DHT22;2117;47.972;7.830;2023-08-21T03:52:54;21.80;99.90
4207;DHT22;2117;47.972;7.830;2023-08-21T03:55:19;21.80;99.90
4207;DHT22;2117;47.972;7.830;2023-08-21T03:57:45;21.70;99.90
4207;DHT22;2117;47.972;7.830;2023-08-21T04:00:10;21.70;99.90
4207;DHT22;2117;47.972;7.830;2023-08-21T04:05:03;21.80;99.90
4207;DHT22;2117;47.972;7.830;2023-08-21T04:07:28;21.80;99.90
4207;DHT22;2117;47.972;7.830;2023-08-21T04:09:54;21.80;99.90
4207;DHT22;2117;47.972;7.830;2023-08-21T04:12:20;21.80;99.90
4207;DHT22;2117;47.972;7.830;2023-08-21T04:14:45;21.80;99.90
4207;DHT22;2117;47.972;7.830;2023-08-21T04:17:11;21.80;99.90
4207;DHT22;2117;47.972;7.830;2023-08-21T04:19:36;21.70;99.90
4207;DHT22;2117;47.972;7.830;2023-08-21T04:22:02;21.70;99.90
4207;DHT22;2117;47.972;7.830;2023-08-21T04:24:27;21.70;99.90
4207;DHT22;2117;47.972;7.830;2023-08-21T04:26:53;21.70;99.90
4207;DHT22;2117;47.972;7.830;2023-08-21T04:29:19;21.70;99.90
4207;DHT22;2117;47.972;7.830;2023-08-21T04:31:44;21.70;99.90
4207;DHT22;2117;47.972;7.830;2023-08-21T04:39:01;21.70;99.90
4207;DHT22;2117;47.972;7.830;2023-08-21T04:41:27;21.70;99.90
4207;DHT22;2117;47.972;7.830;2023-08-21T04:46:18;21.70;99.90
4207;DHT22;2117;47.972;7.830;2023-08-21T04:48:45;21.70;99.90
4207;DHT22;2117;47.972;7.830;2023-08-21T04:51:10;21.60;99.90
4207;DHT22;2117;47.972;7.830;2023-08-21T04:53:36;21.80;99.90
4207;DHT22;2117;47.972;7.830;2023-08-21T04:56:01;21.80;99.90
4207;DHT22;2117;47.972;7.830;2023-08-21T04:58:28;21.80;99.90
4207;DHT22;2117;47.972;7.830;2023-08-21T05:00:54;21.80;99.90
4207;DHT22;2117;47.972;7.830;2023-08-21T05:03:19;21.70;99.90
4207;DHT22;2117;47.972;7.830;2023-08-21T05:05:55;21.80;99.90
4207;DHT22;2117;47.972;7.830;2023-08-21T05:08:23;21.80;99.90
4207;DHT22;2117;47.972;7.830;2023-08-21T05:10:53;21.80;99.90
4207;DHT22;2117;47.972;7.830;2023-08-21T05:13:19;21.80;99.90
4207;DHT22;2117;47.972;7.830;2023-08-21T05:18:10;21.80;99.90
4207;DHT22;2117;47.972;7.830;2023-08-21T05:20:36;21.80;99.90
4207;DHT22;2117;47.972;7.830;2023-08-21T05:23:01;21.80;99.90
4207;DHT22;2117;47.972;7.830;2023-08-21T05:25:27;21.80;99.90
4207;DHT22;2117;47.972;7.830;2023-08-21T05:27:53;21.70;99.90
4207;DHT22;2117;47.972;7.830;2023-08-21T05:30:18;21.70;99.90
4207;DHT22;2117;47.972;7.830;2023-08-21T05:32:44;21.70;99.90
4207;DHT22;2117;47.972;7.830;2023-08-21T05:35:09;21.60;99.90
4207;DHT22;2117;47.972;7.830;2023-08-21T05:37:36;21.70;99.90
4207;DHT22;2117;47.972;7.830;2023-08-21T05:40:01;21.70;99.90
4207;DHT22;2117;47.972;7.830;2023-08-21T05:42:28;21.70;99.90
4207;DHT22;2117;47.972;7.830;2023-08-21T05:44:54;21.80;99.90
4207;DHT22;2117;47.972;7.830;2023-08-21T05:47:19;21.90;99.90
4207;DHT22;2117;47.972;7.830;2023-08-21T05:49:45;22.00;99.90
4207;DHT22;2117;47.972;7.830;2023-08-21T05:52:10;22.10;99.90
4207;DHT22;2117;47.972;7.830;2023-08-21T05:54:36;22.20;99.90
4207;DHT22;2117;47.972;7.830;2023-08-21T05:57:03;22.20;99.90
4207;DHT22;2117;47.972;7.830;2023-08-21T05:59:32;22.30;99.90
4207;DHT22;2117;47.972;7.830;2023-08-21T06:01:58;22.30;99.90
4207;DHT22;2117;47.972;7.830;2023-08-21T06:04:24;22.30;99.90
4207;DHT22;2117;47.972;7.830;2023-08-21T06:06:50;22.40;99.90
4207;DHT22;2117;47.972;7.830;2023-08-21T06:09:15;22.40;99.90
4207;DHT22;2117;47.972;7.830;2023-08-21T06:11:43;22.50;99.90
4207;DHT22;2117;47.972;7.830;2023-08-21T06:14:08;22.50;99.90
4207;DHT22;2117;47.972;7.830;2023-08-21T06:16:34;22.50;99.90
4207;DHT22;2117;47.972;7.830;2023-08-21T06:18:59;22.60;99.90
4207;DHT22;2117;47.972;7.830;2023-08-21T06:21:25;22.60;99.90
4207;DHT22;2117;47.972;7.830;2023-08-21T06:23:50;22.70;99.90
4207;DHT22;2117;47.972;7.830;2023-08-21T06:26:16;22.70;99.90
4207;DHT22;2117;47.972;7.830;2023-08-21T06:28:41;22.80;99.90
4207;DHT22;2117;47.972;7.830;2023-08-21T06:31:08;22.80;99.90
4207;DHT22;2117;47.972;7.830;2023-08-21T06:33:34;22.90;99.90
4207;DHT22;2117;47.972;7.830;2023-08-21T06:35:59;22.90;99.90
4207;DHT22;2117;47.972;7.830;2023-08-21T06:38:25;23.00;99.90
4207;DHT22;2117;47.972;7.830;2023-08-21T06:40:51;23.10;99.90
4207;DHT22;2117;47.972;7.830;2023-08-21T06:43:17;23.10;99.90
4207;DHT22;2117;47.972;7.830;2023-08-21T06:45:42;23.20;99.90
4207;DHT22;2117;47.972;7.830;2023-08-21T06:48:08;23.20;99.90
4207;DHT22;2117;47.972;7.830;2023-08-21T06:50:34;23.30;99.90
4207;DHT22;2117;47.972;7.830;2023-08-21T06:52:59;23.40;99.90
4207;DHT22;2117;47.972;7.830;2023-08-21T06:55:25;23.50;99.90
4207;DHT22;2117;47.972;7.830;2023-08-21T06:57:50;23.60;99.90
4207;DHT22;2117;47.972;7.830;2023-08-21T07:00:16;23.70;99.90
4207;DHT22;2117;47.972;7.830;2023-08-21T07:02:41;23.70;99.90
4207;DHT22;2117;47.972;7.830;2023-08-21T07:05:07;23.80;99.90
4207;DHT22;2117;47.972;7.830;2023-08-21T07:07:33;23.90;99.90
4207;DHT22;2117;47.972;7.830;2023-08-21T07:09:59;24.00;99.90
4207;DHT22;2117;47.972;7.830;2023-08-21T07:12:24;24.00;99.90
4207;DHT22;2117;47.972;7.830;2023-08-21T07:14:50;24.10;99.90
4207;DHT22;2117;47.972;7.830;2023-08-21T07:17:15;24.10;99.90
4207;DHT22;2117;47.972;7.830;2023-08-21T07:19:41;24.30;99.90
4207;DHT22;2117;47.972;7.830;2023-08-21T07:22:06;24.20;99.90
4207;DHT22;2117;47.972;7.830;2023-08-21T07:24:33;24.30;99.90
4207;DHT22;2117;47.972;7.830;2023-08-21T07:26:59;24.40;99.90
4207;DHT22;2117;47.972;7.830;2023-08-21T07:29:24;24.40;99.90
4207;DHT22;2117;47.972;7.830;2023-08-21T07:31:50;24.40;99.90
4207;DHT22;2117;47.972;7.830;2023-08-21T07:34:15;24.50;99.90
4207;DHT22;2117;47.972;7.830;2023-08-21T07:36:41;24.60;99.90
4207;DHT22;2117;47.972;7.830;2023-08-21T07:39:06;24.70;99.90
4207;DHT22;2117;47.972;7.830;2023-08-21T07:41:32;24.80;99.90
4207;DHT22;2117;47.972;7.830;2023-08-21T07:43:57;24.80;99.90
4207;DHT22;2117;47.972;7.830;2023-08-21T07:46:23;24.90;99.90
4207;DHT22;2117;47.972;7.830;2023-08-21T07:48:49;25.00;99.90
4207;DHT22;2117;47.972;7.830;2023-08-21T07:51:15;25.00;99.90
4207;DHT22;2117;47.972;7.830;2023-08-21T07:53:40;25.10;99.90
4207;DHT22;2117;47.972;7.830;2023-08-21T07:56:06;25.20;99.90
4207;DHT22;2117;47.972;7.830;2023-08-21T07:58:32;25.20;99.90
4207;DHT22;2117;47.972;7.830;2023-08-21T08:00:59;25.30;99.90
4207;DHT22;2117;47.972;7.830;2023-08-21T08:03:24;25.30;99.90
4207;DHT22;2117;47.972;7.830;2023-08-21T08:05:50;25.30;99.90
4207;DHT22;2117;47.972;7.830;2023-08-21T08:08:19;25.40;99.90
4207;DHT22;2117;47.972;7.830;2023-08-21T08:10:44;25.40;99.90
4207;DHT22;2117;47.972;7.830;2023-08-21T08:13:10;25.50;99.90
4207;DHT22;2117;47.972;7.830;2023-08-21T08:15:35;25.60;99.90
4207;DHT22;2117;47.972;7.830;2023-08-21T08:18:02;25.70;99.90
4207;DHT22;2117;47.972;7.830;2023-08-21T08:20:28;25.80;99.90
4207;DHT22;2117;47.972;7.830;2023-08-21T08:22:54;25.80;99.90
4207;DHT22;2117;47.972;7.830;2023-08-21T08:25:20;25.90;99.90
4207;DHT22;2117;47.972;7.830;2023-08-21T08:27:45;25.90;99.90
4207;DHT22;2117;47.972;7.830;2023-08-21T08:30:11;26.00;99.90
4207;DHT22;2117;47.972;7.830;2023-08-21T08:32:37;26.10;99.90
4207;DHT22;2117;47.972;7.830;2023-08-21T08:35:03;26.20;99.90
4207;DHT22;2117;47.972;7.830;2023-08-21T08:37:28;26.20;99.90
4207;DHT22;2117;47.972;7.830;2023-08-21T08:39:54;26.20;99.90
4207;DHT22;2117;47.972;7.830;2023-08-21T08:42:19;26.30;99.90
4207;DHT22;2117;47.972;7.830;2023-08-21T08:44:45;26.30;99.90
4207;DHT22;2117;47.972;7.830;2023-08-21T08:47:12;26.40;99.90
4207;DHT22;2117;47.972;7.830;2023-08-21T08:49:38;26.50;99.90
4207;DHT22;2117;47.972;7.830;2023-08-21T08:52:04;26.60;99.90
4207;DHT22;2117;47.972;7.830;2023-08-21T08:54:31;26.70;99.90
4207;DHT22;2117;47.972;7.830;2023-08-21T08:56:57;26.80;99.90
4207;DHT22;2117;47.972;7.830;2023-08-21T08:59:22;26.90;99.90
4207;DHT22;2117;47.972;7.830;2023-08-21T09:01:48;26.90;99.90
4207;DHT22;2117;47.972;7.830;2023-08-21T09:04:14;26.90;99.90
4207;DHT22;2117;47.972;7.830;2023-08-21T09:06:39;27.00;99.90
4207;DHT22;2117;47.972;7.830;2023-08-21T09:09:07;26.90;99.90
4207;DHT22;2117;47.972;7.830;2023-08-21T09:11:33;27.10;99.90
4207;DHT22;2117;47.972;7.830;2023-08-21T09:13:59;27.20;99.90
4207;DHT22;2117;47.972;7.830;2023-08-21T09:16:26;27.30;99.90
4207;DHT22;2117;47.972;7.830;2023-08-21T09:18:53;27.50;99.90
4207;DHT22;2117;47.972;7.830;2023-08-21T09:21:23;27.80;99.90
4207;DHT22;2117;47.972;7.830;2023-08-21T09:23:57;27.80;99.90
4207;DHT22;2117;47.972;7.830;2023-08-21T09:26:24;28.00;99.90
4207;DHT22;2117;47.972;7.830;2023-08-21T09:28:51;28.10;99.90
4207;DHT22;2117;47.972;7.830;2023-08-21T09:31:30;28.20;99.90
4207;DHT22;2117;47.972;7.830;2023-08-21T09:33:57;28.30;99.90
4207;DHT22;2117;47.972;7.830;2023-08-21T09:36:23;28.50;99.90
4207;DHT22;2117;47.972;7.830;2023-08-21T09:38:50;28.60;99.90
4207;DHT22;2117;47.972;7.830;2023-08-21T09:41:20;28.60;99.90
4207;DHT22;2117;47.972;7.830;2023-08-21T09:43:45;28.90;99.90
4207;DHT22;2117;47.972;7.830;2023-08-21T09:46:15;28.90;99.90
4207;DHT22;2117;47.972;7.830;2023-08-21T09:48:43;29.10;99.90
4207;DHT22;2117;47.972;7.830;2023-08-21T09:51:09;29.20;99.90
4207;DHT22;2117;47.972;7.830;2023-08-21T09:53:37;29.40;99.90
4207;DHT22;2117;47.972;7.830;2023-08-21T09:56:03;29.50;99.90
4207;DHT22;2117;47.972;7.830;2023-08-21T09:58:29;29.60;99.90
4207;DHT22;2117;47.972;7.830;2023-08-21T10:00:57;29.80;99.90
4207;DHT22;2117;47.972;7.830;2023-08-21T10:03:23;29.70;99.90
4207;DHT22;2117;47.972;7.830;2023-08-21T10:05:49;29.90;99.90
4207;DHT22;2117;47.972;7.830;2023-08-21T10:08:21;30.00;99.90
4207;DHT22;2117;47.972;7.830;2023-08-21T10:10:48;30.10;99.90
4207;DHT22;2117;47.972;7.830;2023-08-21T10:13:14;30.00;99.90
4207;DHT22;2117;47.972;7.830;2023-08-21T10:15:40;30.00;99.90
4207;DHT22;2117;47.972;7.830;2023-08-21T10:18:20;30.20;99.90
4207;DHT22;2117;47.972;7.830;2023-08-21T10:20:45;30.30;99.90
4207;DHT22;2117;47.972;7.830;2023-08-21T10:23:24;30.60;99.90
4207;DHT22;2117;47.972;7.830;2023-08-21T10:25:57;30.80;99.90
4207;DHT22;2117;47.972;7.830;2023-08-21T10:28:23;30.90;99.90
4207;DHT22;2117;47.972;7.830;2023-08-21T10:30:49;31.10;99.90
4207;DHT22;2117;47.972;7.830;2023-08-21T10:33:14;31.30;99.90
4207;DHT22;2117;47.972;7.830;2023-08-21T10:35:40;31.60;99.90
4207;DHT22;2117;47.972;7.830;2023-08-21T10:38:16;31.90;99.90
4207;DHT22;2117;47.972;7.830;2023-08-21T10:41:08;32.10;99.90
4207;DHT22;2117;47.972;7.830;2023-08-21T10:43:42;32.40;99.90
4207;DHT22;2117;47.972;7.830;2023-08-21T10:46:09;32.60;99.90
4207;DHT22;2117;47.972;7.830;2023-08-21T10:48:35;32.70;99.90
4207;DHT22;2117;47.972;7.830;2023-08-21T10:51:02;32.80;99.90
4207;DHT22;2117;47.972;7.830;2023-08-21T10:53:29;32.10;99.90
4207;DHT22;2117;47.972;7.830;2023-08-21T10:55:56;32.00;99.90
4207;DHT22;2117;47.972;7.830;2023-08-21T10:58:22;32.20;99.90
4207;DHT22;2117;47.972;7.830;2023-08-21T11:00:56;32.40;99.90
4207;DHT22;2117;47.972;7.830;2023-08-21T11:03:23;32.70;99.90
4207;DHT22;2117;47.972;7.830;2023-08-21T11:06:03;33.20;99.90
4207;DHT22;2117;47.972;7.830;2023-08-21T11:08:28;33.40;99.90
4207;DHT22;2117;47.972;7.830;2023-08-21T11:10:54;33.90;99.90
4207;DHT22;2117;47.972;7.830;2023-08-21T11:13:23;34.50;99.90
4207;DHT22;2117;47.972;7.830;2023-08-21T11:15:49;35.30;99.90
4207;DHT22;2117;47.972;7.830;2023-08-21T11:18:22;35.90;99.90
4207;DHT22;2117;47.972;7.830;2023-08-21T11:21:03;36.50;99.90
4207;DHT22;2117;47.972;7.830;2023-08-21T11:23:32;37.10;99.90
4207;DHT22;2117;47.972;7.830;2023-08-21T11:25:58;36.30;99.90
4207;DHT22;2117;47.972;7.830;2023-08-21T11:28:23;36.30;99.90
4207;DHT22;2117;47.972;7.830;2023-08-21T11:30:49;37.30;99.90
4207;DHT22;2117;47.972;7.830;2023-08-21T11:33:15;38.00;99.90
4207;DHT22;2117;47.972;7.830;2023-08-21T11:35:41;38.60;99.90
4207;DHT22;2117;47.972;7.830;2023-08-21T11:38:12;39.20;99.90
4207;DHT22;2117;47.972;7.830;2023-08-21T11:40:38;38.50;99.90
4207;DHT22;2117;47.972;7.830;2023-08-21T11:43:04;39.30;99.90
4207;DHT22;2117;47.972;7.830;2023-08-21T11:45:34;40.10;99.90
4207;DHT22;2117;47.972;7.830;2023-08-21T11:48:00;40.70;98.80
4207;DHT22;2117;47.972;7.830;2023-08-21T11:50:25;41.20;98.60
4207;DHT22;2117;47.972;7.830;2023-08-21T11:52:53;41.00;97.30
4207;DHT22;2117;47.972;7.830;2023-08-21T11:55:20;41.40;97.10
4207;DHT22;2117;47.972;7.830;2023-08-21T11:57:47;41.20;96.00
4207;DHT22;2117;47.972;7.830;2023-08-21T12:00:13;41.40;95.90
4207;DHT22;2117;47.972;7.830;2023-08-21T12:02:39;41.60;95.70
4207;DHT22;2117;47.972;7.830;2023-08-21T12:05:05;42.00;95.00
4207;DHT22;2117;47.972;7.830;2023-08-21T12:07:31;41.80;94.00
4207;DHT22;2117;47.972;7.830;2023-08-21T12:09:57;41.40;92.30
4207;DHT22;2117;47.972;7.830;2023-08-21T12:12:23;41.90;92.90
4207;DHT22;2117;47.972;7.830;2023-08-21T12:14:49;42.00;91.80
4207;DHT22;2117;47.972;7.830;2023-08-21T12:17:14;42.20;90.60
4207;DHT22;2117;47.972;7.830;2023-08-21T12:19:40;40.40;91.80
4207;DHT22;2117;47.972;7.830;2023-08-21T12:22:07;39.20;92.90
4207;DHT22;2117;47.972;7.830;2023-08-21T12:24:32;39.90;93.30
4207;DHT22;2117;47.972;7.830;2023-08-21T12:26:58;40.90;93.10
4207;DHT22;2117;47.972;7.830;2023-08-21T12:29:23;41.30;90.70
4207;DHT22;2117;47.972;7.830;2023-08-21T12:31:49;41.30;91.40
4207;DHT22;2117;47.972;7.830;2023-08-21T12:34:15;42.00;91.40
4207;DHT22;2117;47.972;7.830;2023-08-21T12:36:40;41.80;92.00
4207;DHT22;2117;47.972;7.830;2023-08-21T12:39:06;41.80;92.30
4207;DHT22;2117;47.972;7.830;2023-08-21T12:41:32;42.50;91.30
4207;DHT22;2117;47.972;7.830;2023-08-21T12:44:01;42.40;90.80
4207;DHT22;2117;47.972;7.830;2023-08-21T12:46:34;42.80;86.80
4207;DHT22;2117;47.972;7.830;2023-08-21T12:48:59;42.60;88.00
4207;DHT22;2117;47.972;7.830;2023-08-21T12:51:27;43.00;89.40
4207;DHT22;2117;47.972;7.830;2023-08-21T12:53:52;43.50;88.20
4207;DHT22;2117;47.972;7.830;2023-08-21T12:56:18;43.70;86.20
4207;DHT22;2117;47.972;7.830;2023-08-21T12:58:45;44.10;88.20
4207;DHT22;2117;47.972;7.830;2023-08-21T13:01:10;44.10;82.10
4207;DHT22;2117;47.972;7.830;2023-08-21T13:03:37;42.30;84.90
4207;DHT22;2117;47.972;7.830;2023-08-21T13:06:03;42.50;87.60
4207;DHT22;2117;47.972;7.830;2023-08-21T13:08:29;42.60;88.50
4207;DHT22;2117;47.972;7.830;2023-08-21T13:10:55;43.30;87.30
4207;DHT22;2117;47.972;7.830;2023-08-21T13:13:20;44.00;86.80
4207;DHT22;2117;47.972;7.830;2023-08-21T13:15:46;44.60;85.60
4207;DHT22;2117;47.972;7.830;2023-08-21T13:18:12;44.80;84.30
4207;DHT22;2117;47.972;7.830;2023-08-21T13:20:41;44.70;83.80
4207;DHT22;2117;47.972;7.830;2023-08-21T13:23:06;45.00;82.80
4207;DHT22;2117;47.972;7.830;2023-08-21T13:25:32;45.20;83.40
4207;DHT22;2117;47.972;7.830;2023-08-21T13:28:00;45.40;82.30
4207;DHT22;2117;47.972;7.830;2023-08-21T13:30:25;45.50;79.90
4207;DHT22;2117;47.972;7.830;2023-08-21T13:32:51;45.60;81.40
4207;DHT22;2117;47.972;7.830;2023-08-21T13:35:17;45.80;81.30
4207;DHT22;2117;47.972;7.830;2023-08-21T13:37:43;44.50;77.90
4207;DHT22;2117;47.972;7.830;2023-08-21T13:40:08;44.30;79.90
4207;DHT22;2117;47.972;7.830;2023-08-21T13:42:43;44.60;79.20
4207;DHT22;2117;47.972;7.830;2023-08-21T13:45:10;43.80;79.80
4207;DHT22;2117;47.972;7.830;2023-08-21T13:47:41;44.50;81.00
4207;DHT22;2117;47.972;7.830;2023-08-21T13:50:08;44.70;80.90
4207;DHT22;2117;47.972;7.830;2023-08-21T13:52:34;44.60;80.10
4207;DHT22;2117;47.972;7.830;2023-08-21T13:55:00;44.80;80.40
4207;DHT22;2117;47.972;7.830;2023-08-21T13:57:26;44.70;80.70
4207;DHT22;2117;47.972;7.830;2023-08-21T13:59:52;44.80;81.20
4207;DHT22;2117;47.972;7.830;2023-08-21T14:02:18;45.20;81.20
4207;DHT22;2117;47.972;7.830;2023-08-21T14:04:45;45.40;79.20
4207;DHT22;2117;47.972;7.830;2023-08-21T14:07:11;45.50;77.60
4207;DHT22;2117;47.972;7.830;2023-08-21T14:09:37;45.60;77.00
4207;DHT22;2117;47.972;7.830;2023-08-21T14:12:03;45.50;76.70
4207;DHT22;2117;47.972;7.830;2023-08-21T14:14:29;45.60;75.60
4207;DHT22;2117;47.972;7.830;2023-08-21T14:16:55;45.80;77.60
4207;DHT22;2117;47.972;7.830;2023-08-21T14:19:20;45.50;73.20
4207;DHT22;2117;47.972;7.830;2023-08-21T14:21:46;44.00;76.00
4207;DHT22;2117;47.972;7.830;2023-08-21T14:24:11;43.20;79.50
4207;DHT22;2117;47.972;7.830;2023-08-21T14:26:37;43.60;77.60
4207;DHT22;2117;47.972;7.830;2023-08-21T14:29:05;44.00;77.80
4207;DHT22;2117;47.972;7.830;2023-08-21T14:31:30;44.00;78.40
4207;DHT22;2117;47.972;7.830;2023-08-21T14:33:56;44.30;77.40
4207;DHT22;2117;47.972;7.830;2023-08-21T14:36:21;44.40;76.90
4207;DHT22;2117;47.972;7.830;2023-08-21T14:38:47;44.60;75.70
4207;DHT22;2117;47.972;7.830;2023-08-21T14:41:12;43.80;78.30
4207;DHT22;2117;47.972;7.830;2023-08-21T14:43:38;44.20;79.20
4207;DHT22;2117;47.972;7.830;2023-08-21T14:46:03;44.40;78.90
4207;DHT22;2117;47.972;7.830;2023-08-21T14:48:29;44.40;76.80
4207;DHT22;2117;47.972;7.830;2023-08-21T14:50:55;44.50;76.10
4207;DHT22;2117;47.972;7.830;2023-08-21T14:53:26;44.30;75.10
4207;DHT22;2117;47.972;7.830;2023-08-21T14:55:52;44.40;76.10
4207;DHT22;2117;47.972;7.830;2023-08-21T14:58:18;43.80;74.90
4207;DHT22;2117;47.972;7.830;2023-08-21T15:00:43;43.80;74.90
4207;DHT22;2117;47.972;7.830;2023-08-21T15:03:09;44.00;76.90
4207;DHT22;2117;47.972;7.830;2023-08-21T15:05:34;44.00;77.40
4207;DHT22;2117;47.972;7.830;2023-08-21T15:08:00;44.40;76.60
4207;DHT22;2117;47.972;7.830;2023-08-21T15:10:30;44.40;75.90
4207;DHT22;2117;47.972;7.830;2023-08-21T15:12:55;44.40;75.50
4207;DHT22;2117;47.972;7.830;2023-08-21T15:15:21;44.10;75.60
4207;DHT22;2117;47.972;7.830;2023-08-21T15:17:47;44.20;76.10
4207;DHT22;2117;47.972;7.830;2023-08-21T15:20:13;44.30;74.90
4207;DHT22;2117;47.972;7.830;2023-08-21T15:22:41;44.20;75.40
4207;DHT22;2117;47.972;7.830;2023-08-21T15:25:08;44.10;73.80
4207;DHT22;2117;47.972;7.830;2023-08-21T15:27:34;44.00;76.30
4207;DHT22;2117;47.972;7.830;2023-08-21T15:30:00;43.60;74.80
4207;DHT22;2117;47.972;7.830;2023-08-21T15:32:25;43.50;76.70
4207;DHT22;2117;47.972;7.830;2023-08-21T15:34:51;43.10;75.60
4207;DHT22;2117;47.972;7.830;2023-08-21T15:37:16;43.00;76.40
4207;DHT22;2117;47.972;7.830;2023-08-21T15:39:42;43.00;75.80
4207;DHT22;2117;47.972;7.830;2023-08-21T15:42:07;42.80;76.30
4207;DHT22;2117;47.972;7.830;2023-08-21T15:44:33;42.50;78.20
4207;DHT22;2117;47.972;7.830;2023-08-21T15:46:58;42.00;78.40
4207;DHT22;2117;47.972;7.830;2023-08-21T15:49:24;41.00;78.80
4207;DHT22;2117;47.972;7.830;2023-08-21T15:51:49;40.80;80.20
4207;DHT22;2117;47.972;7.830;2023-08-21T15:54:19;40.30;80.90
4207;DHT22;2117;47.972;7.830;2023-08-21T15:56:45;39.80;82.60
4207;DHT22;2117;47.972;7.830;2023-08-21T15:59:11;38.40;83.10
4207;DHT22;2117;47.972;7.830;2023-08-21T16:01:36;38.40;84.10
4207;DHT22;2117;47.972;7.830;2023-08-21T16:04:02;38.10;85.10
4207;DHT22;2117;47.972;7.830;2023-08-21T16:06:28;37.70;86.90
4207;DHT22;2117;47.972;7.830;2023-08-21T16:08:53;36.90;87.00
4207;DHT22;2117;47.972;7.830;2023-08-21T16:11:19;37.00;87.90
4207;DHT22;2117;47.972;7.830;2023-08-21T16:13:44;36.60;88.50
4207;DHT22;2117;47.972;7.830;2023-08-21T16:16:10;36.30;89.80
4207;DHT22;2117;47.972;7.830;2023-08-21T16:18:35;36.10;90.00
4207;DHT22;2117;47.972;7.830;2023-08-21T16:21:04;35.90;90.20
4207;DHT22;2117;47.972;7.830;2023-08-21T16:23:30;35.60;90.50
4207;DHT22;2117;47.972;7.830;2023-08-21T16:25:55;35.40;90.80
4207;DHT22;2117;47.972;7.830;2023-08-21T16:28:21;35.20;90.80
4207;DHT22;2117;47.972;7.830;2023-08-21T16:30:46;35.00;90.60
4207;DHT22;2117;47.972;7.830;2023-08-21T16:33:12;34.90;91.30
4207;DHT22;2117;47.972;7.830;2023-08-21T16:35:37;34.70;91.30
4207;DHT22;2117;47.972;7.830;2023-08-21T16:38:03;34.50;91.90
4207;DHT22;2117;47.972;7.830;2023-08-21T16:40:28;34.40;92.10
4207;DHT22;2117;47.972;7.830;2023-08-21T16:42:54;34.30;92.70
4207;DHT22;2117;47.972;7.830;2023-08-21T16:45:19;34.10;92.20
4207;DHT22;2117;47.972;7.830;2023-08-21T16:47:45;34.00;91.90
4207;DHT22;2117;47.972;7.830;2023-08-21T16:50:12;33.90;92.80
4207;DHT22;2117;47.972;7.830;2023-08-21T16:52:37;33.80;92.40
4207;DHT22;2117;47.972;7.830;2023-08-21T16:55:03;33.70;92.50
4207;DHT22;2117;47.972;7.830;2023-08-21T16:57:29;33.50;92.80
4207;DHT22;2117;47.972;7.830;2023-08-21T16:59:54;33.50;93.60
4207;DHT22;2117;47.972;7.830;2023-08-21T17:02:20;33.30;93.70
4207;DHT22;2117;47.972;7.830;2023-08-21T17:04:47;33.20;93.90
4207;DHT22;2117;47.972;7.830;2023-08-21T17:07:13;33.10;93.10
4207;DHT22;2117;47.972;7.830;2023-08-21T17:09:43;33.00;93.20
4207;DHT22;2117;47.972;7.830;2023-08-21T17:12:09;32.90;93.40
4207;DHT22;2117;47.972;7.830;2023-08-21T17:14:35;32.80;93.70
4207;DHT22;2117;47.972;7.830;2023-08-21T17:17:00;32.70;94.30
4207;DHT22;2117;47.972;7.830;2023-08-21T17:19:26;32.50;94.20
4207;DHT22;2117;47.972;7.830;2023-08-21T17:21:51;32.40;94.60